• Join FlightAware (Why Join?)
  • Login
  • US Flag 
12:02AM EDT


 

Airport Tracker/Info


-or-


 

Live Flight TrackerFlight Track Log ✈ FFT403 ✈ 28-Apr-2013 ✈ KDEN - KLAX

Flight Track Log - Related Links

Times and Time Zones

All times are in EDT time to prevent confusion due to time zone crossing. See the FFT403 flight status page for this flight to view local times or setup timezone preferences in your user account.

Time Position Orientation Groundspeed Altitude Reporting Facility
EDT Latitude Longitude Course Direction KTS MPH feet Rate Location/Type
10:58AM 39.8333 -104.7667 252° West 175 201 7,200  Level Denver TRACON
10:59AM 39.8167 -104.8333 252° West 239 275 8,300 1,740 Climbing Denver TRACON
11:00AM 39.7833 -104.9167 243° Southwest 288 331 10,400 1,980 Climbing Denver TRACON
11:01AM 39.7608 -105.0133 253° West 321 369 11,900 2,460 Climbing Denver Center
11:02AM 39.7200 -105.1331 246° West 338 389 15,200 2,940 Climbing Denver Center
11:03AM 39.6817 -105.2436 246° West 337 388 18,000 2,520 Climbing Denver Center
11:04AM 39.6406 -105.3619 246° West 337 388 20,500 1,800 Climbing Denver Center
11:05AM 39.6111 -105.4506 247° West 347 399 21,800 1,200 Climbing Denver Center
11:06AM 39.5578 -105.6000 245° Southwest 374 430 23,100 1,200 Climbing Denver Center
11:07AM 39.5183 -105.7361 249° West 410 472 24,300 1,260 Climbing Denver Center
11:08AM 39.4806 -105.8792 251° West 415 478 25,800 1,620 Climbing Denver Center
11:09AM 39.4328 -106.0525 250° West 434 499 27,700 1,560 Climbing Denver Center
11:10AM 39.3897 -106.2069 250° West 440 506 29,100 1,080 Climbing Denver Center
11:11AM 39.3481 -106.3522 250° West 448 516 30,000 960 Climbing Denver Center
11:12AM 39.2986 -106.5247 250° West 457 526 31,100 1,200 Climbing Denver Center
11:13AM 39.2558 -106.6703 249° West 453 521 32,500 1,200 Climbing Denver Center
11:14AM 39.1914 -106.8053 238° Southwest 456 525 33,600 1,140 Climbing Denver Center
11:15AM 39.1008 -106.9472 231° Southwest 461 531 34,900 660 Climbing Denver Center
11:16AM 39.0389 -107.0775 239° Southwest 449 517 35,000  Climbing Denver Center
11:17AM 38.9647 -107.2317 238° Southwest 453 521 35,000  Level Denver Center
11:18AM 38.9006 -107.3644 238° Southwest 456 525 35,100 660 Climbing Denver Center
11:19AM 38.8275 -107.5158 238° Southwest 448 516 36,400 900 Climbing Denver Center
11:20AM 38.7647 -107.6458 238° Southwest 447 514 37,000 240 Climbing Denver Center
11:21AM 38.6911 -107.7969 238° Southwest 448 516 37,000 180 Level Denver Center
11:22AM 38.6278 -107.9286 238° Southwest 450 518 37,400 480 Climbing Denver Center
11:24AM 38.5636 -108.0572 237° Southwest 448 516 38,000 240 Climbing Denver Center
11:25AM 38.4906 -108.2072 238° Southwest 445 512 38,000  Level Denver Center
11:26AM 38.4269 -108.3347 238° Southwest 445 512 38,000  Level Denver Center
11:27AM 38.3533 -108.4842 238° Southwest 443 510 38,000  Level Denver Center
11:28AM 38.2900 -108.6106 237° Southwest 442 509 38,000  Level Denver Center
11:29AM 38.2169 -108.7578 238° Southwest 440 506 38,000  Level Denver Center
11:30AM 38.1542 -108.8831 238° Southwest 439 505 38,000  Level Denver Center
11:31AM 38.0794 -109.0300 237° Southwest 441 507 38,000  Level Denver Center
11:32AM 38.0136 -109.1550 236° Southwest 437 503 38,000  Level Denver Center
11:33AM 37.9494 -109.2831 238° Southwest 448 516 38,000  Level Denver Center
11:34AM 37.8617 -109.4519 237° Southwest 451 519 38,000  Level Denver Center
11:35AM 37.8083 -109.5564 237° Southwest 447 514 38,000  Level Denver Center
11:36AM 37.7228 -109.7217 237° Southwest 441 507 38,000  Level Denver Center
11:37AM 37.6581 -109.8478 237° Southwest 446 513 38,000  Level Denver Center
11:38AM 37.5803 -109.9950 236° Southwest 451 519 38,000  Level Denver Center
11:39AM 37.5158 -110.1189 237° Southwest 446 513 38,000  Level Denver Center
11:40AM 37.4522 -110.2400 237° Southwest 435 501 38,000  Level Denver Center
11:41AM 37.3722 -110.3914 236° Southwest 432 497 38,000  Level Denver Center
11:42AM 37.3064 -110.5150 236° Southwest 429 494 38,000  Level Denver Center
11:43AM 37.2422 -110.6358 236° Southwest 421 484 38,000  Level Denver Center
11:44AM 37.1772 -110.7594 237° Southwest 422 486 38,000  Level Denver Center
11:45AM 37.1100 -110.8839 236° Southwest 427 491 38,000  Level Denver Center
11:46AM 37.0444 -111.0056 236° Southwest 423 487 38,000  Level Denver Center
11:47AM 36.9636 -111.1536 236° Southwest 429 494 38,000  Level Denver Center
11:48AM 36.8972 -111.2772 236° Southwest 428 493 38,000  Level Denver Center
11:50AM 36.8306 -111.4011 236° Southwest 429 494 38,000  Level Denver Center
11:51AM 36.7628 -111.5253 236° Southwest 431 496 38,000  Level Denver Center
11:52AM 36.6933 -111.6511 235° Southwest 437 503 38,000  Level Denver Center
11:53AM 36.6244 -111.7756 235° Southwest 437 503 38,000  Level Denver Center
11:53AM 36.5692 -111.8756 235° Southwest 434 499 38,000  Level Los Angeles Center
11:54AM 36.4997 -111.9992 235° Southwest 434 499 38,000  Level Los Angeles Center
11:55AM 36.4317 -112.1228 236° Southwest 434 499 38,000  Level Los Angeles Center
11:56AM 36.3625 -112.2472 235° Southwest 435 501 38,000  Level Los Angeles Center
11:57AM 36.2783 -112.3961 235° Southwest 438 504 38,000  Level Los Angeles Center
11:59AM 36.2094 -112.5206 236° Southwest 437 503 38,000  Level Los Angeles Center
12:00PM 36.1392 -112.6447 235° Southwest 438 504 38,000  Level Los Angeles Center
12:01PM 36.0683 -112.7697 235° Southwest 441 507 38,000  Level Los Angeles Center
12:02PM 35.9967 -112.8964 235° Southwest 447 514 38,000  Level Los Angeles Center
12:03PM 35.9272 -113.0181 235° Southwest 449 517 38,000  Level Los Angeles Center
12:04PM 35.8428 -113.1656 235° Southwest 444 511 38,000  Level Los Angeles Center
12:05PM 35.7728 -113.2878 235° Southwest 443 510 38,000  Level Los Angeles Center
12:06PM 35.7025 -113.4100 235° Southwest 443 510 38,000  Level Los Angeles Center
12:07PM 35.6322 -113.5322 235° Southwest 444 511 38,000  Level Los Angeles Center
12:08PM 35.5661 -113.6903 243° Southwest 439 505 38,000  Level Los Angeles Center
12:09PM 35.5131 -113.8225 244° Southwest 437 503 38,000  Level Los Angeles Center
12:10PM 35.4583 -113.9539 243° Southwest 437 503 38,000  Level Los Angeles Center
12:11PM 35.4008 -114.0953 244° Southwest 441 507 38,000  Level Los Angeles Center
12:12PM 35.3458 -114.2281 243° Southwest 439 505 38,000  Level Los Angeles Center
12:13PM 35.2908 -114.3614 243° Southwest 439 505 38,000  Level Los Angeles Center
12:14PM 35.2244 -114.5206 243° Southwest 438 504 38,000  Level Los Angeles Center
12:15PM 35.1692 -114.6547 243° Southwest 440 506 38,000  Level Los Angeles Center
12:16PM 35.1139 -114.7872 243° Southwest 438 504 38,000  Level Los Angeles Center
12:17PM 35.0589 -114.9178 243° Southwest 433 498 38,000 -480 Level Los Angeles Center
12:18PM 35.0036 -115.0486 243° Southwest 432 497 37,100 -1,080 Descending Los Angeles Center
12:19PM 34.9467 -115.1833 243° Southwest 445 512 35,800 -1,140 Descending Los Angeles Center
12:20PM 34.8894 -115.3197 243° Southwest 450 518 34,800 -1,080 Descending Los Angeles Center
12:21PM 34.8214 -115.4797 243° Southwest 445 512 33,600 -1,020 Descending Los Angeles Center
12:22PM 34.7697 -115.6006 243° Southwest 449 517 32,700 -960 Descending Los Angeles Center
12:23PM 34.7122 -115.7353 243° Southwest 450 518 31,700 -1,020 Descending Los Angeles Center
12:24PM 34.6522 -115.8717 242° Southwest 456 525 30,700 -1,080 Descending Los Angeles Center
12:26PM 34.5717 -116.0617 243° Southwest 452 520 29,300 -1,020 Descending Los Angeles Center
12:27PM 34.5119 -116.1950 242° Southwest 450 518 28,500 -780 Descending Los Angeles Center
12:28PM 34.4536 -116.3275 242° Southwest 447 514 27,800 -720 Descending Los Angeles Center
12:29PM 34.3967 -116.4581 242° Southwest 439 505 27,100 -1,020 Descending Los Angeles Center
12:30PM 34.3394 -116.5878 242° Southwest 437 503 25,800 -1,860 Descending Los Angeles Center
12:31PM 34.2733 -116.7364 242° Southwest 421 484 23,300 -2,160 Descending Los Angeles Center
12:32PM 34.2197 -116.8575 242° Southwest 411 473 21,400 -1,860 Descending Los Angeles Center
12:33PM 34.1681 -116.9725 242° Southwest 395 455 19,500 -1,620 Descending Los Angeles Center
12:34PM 34.1167 -117.0881 242° Southwest 380 437 18,100 -1,440 Descending Los Angeles Center
12:34PM 34.0833 -117.1500 237° Southwest 377 434 17,400 -1,680 Descending Southern California TRACON
12:35PM 34.0500 -117.2667 251° West 377 434 15,700 -1,620 Descending Southern California TRACON
12:36PM 34.0333 -117.4000 261° West 360 414 14,000 -1,620 Descending Southern California TRACON
12:37PM 34.0167 -117.5167 260° West 358 412 12,300 -1,200 Descending Southern California TRACON
12:38PM 34.0167 -117.6333 270° West 405 466 11,600 -1,080 Descending Southern California TRACON
12:39PM 34.0000 -117.7333 259° West 298 343 10,200 -1,320 Descending Southern California TRACON
12:40PM 34.0000 -117.8167 270° West 295 339 9,100 -1,380 Descending Southern California TRACON
12:41PM 33.9833 -117.9333 260° West 288 331 7,500 -1,560 Descending Southern California TRACON
12:42PM 33.9667 -118.0167 256° West 267 307 5,900 -1,320 Descending Southern California TRACON
12:43PM 33.9667 -118.1000 270° West 233 268 4,900 -900 Descending Southern California TRACON
12:44PM 33.9611 -118.1519 263° West 228 262 4,300 -1,200 Descending Los Angeles Center
12:45PM 33.9542 -118.2156 263° West 203 234 2,800 -1,200 Descending Los Angeles Center
12:46PM 33.9486 -118.2736 263° West 189 217 1,900 -900 Descending Los Angeles Center
12:47PM 33.9425 -118.3347 263° West 168 193 1,000 -780 Descending Los Angeles Center
12:48PM 33.9389 -118.3789 264° West 149 171 300 -720 Descending Los Angeles Center
12:50PM 33.9333 -118.4000 259° West  Level FlightAware Approximate
12:57PM 33.9425 -118.4081 259° West  Level Estimated